createdAt,value
2023-11-30T00:02:03.176Z,50.87
2023-11-30T00:04:31.598Z,52.00
2023-11-30T00:07:00.019Z,48.77
2023-11-30T00:09:28.699Z,49.73
2023-11-30T00:11:57.400Z,56.87
2023-11-30T00:14:25.937Z,48.97
2023-11-30T00:16:54.865Z,57.47
2023-11-30T00:19:24.862Z,55.47
2023-11-30T00:21:53.238Z,44.73
2023-11-30T00:24:21.645Z,54.97
2023-11-30T00:26:50.216Z,54.57
2023-11-30T00:29:18.736Z,50.00
2023-11-30T00:31:47.191Z,51.27
2023-11-30T00:34:15.756Z,57.43
2023-11-30T00:36:45.551Z,50.53
2023-11-30T00:39:14.063Z,52.30
2023-11-30T00:41:42.582Z,47.87
2023-11-30T00:44:12.309Z,49.13
2023-11-30T00:46:40.742Z,54.53
2023-11-30T00:49:09.135Z,50.23
2023-11-30T00:51:37.575Z,55.13
2023-11-30T00:54:07.710Z,50.73
2023-11-30T00:56:36.229Z,55.93
2023-11-30T00:59:04.737Z,55.97
2023-11-30T01:01:33.212Z,56.77
2023-11-30T01:04:01.679Z,50.97
2023-11-30T01:06:30.040Z,39.80
2023-11-30T01:08:58.828Z,49.13
2023-11-30T01:11:28.724Z,45.80
2023-11-30T01:13:57.135Z,44.20
2023-11-30T01:16:25.604Z,54.77
2023-11-30T01:18:54.156Z,54.17
2023-11-30T01:21:22.866Z,46.70
2023-11-30T01:23:51.347Z,60.43
2023-11-30T01:26:19.795Z,43.60
2023-11-30T01:28:49.692Z,43.53
2023-11-30T01:31:18.342Z,48.20
2023-11-30T01:33:46.824Z,41.70
2023-11-30T01:36:15.485Z,52.23
2023-11-30T01:38:43.967Z,45.70
2023-11-30T01:41:13.047Z,45.10
2023-11-30T01:43:42.400Z,50.53
2023-11-30T01:46:12.256Z,52.13
2023-11-30T01:48:41.492Z,45.07
2023-11-30T01:51:11.467Z,48.93
2023-11-30T01:53:40.700Z,49.67
2023-11-30T01:56:11.005Z,52.73
2023-11-30T01:58:39.979Z,49.43
2023-11-30T02:01:09.698Z,58.47
2023-11-30T02:03:40.047Z,45.27
2023-11-30T02:06:09.344Z,55.37
2023-11-30T02:08:37.990Z,51.93
2023-11-30T02:11:07.191Z,47.67
2023-11-30T02:13:35.671Z,47.33
2023-11-30T02:16:04.297Z,49.03
2023-11-30T02:18:32.743Z,48.03
2023-11-30T02:21:02.814Z,47.63
2023-11-30T02:23:33.288Z,52.27
2023-11-30T02:26:01.556Z,48.43
2023-11-30T02:28:29.923Z,58.63
2023-11-30T02:30:58.252Z,42.60
2023-11-30T02:33:26.665Z,49.93
2023-11-30T02:35:55.176Z,41.43
2023-11-30T02:38:23.732Z,44.23
2023-11-30T02:40:53.757Z,45.87
2023-11-30T02:43:23.457Z,50.43
2023-11-30T02:45:51.861Z,51.70
2023-11-30T02:48:20.442Z,49.27
2023-11-30T02:50:48.823Z,46.17
2023-11-30T02:53:17.349Z,52.60
2023-11-30T02:55:45.847Z,55.80
2023-11-30T02:58:15.650Z,47.70
2023-11-30T03:00:44.311Z,47.07
2023-11-30T03:03:12.656Z,54.97
2023-11-30T03:05:41.667Z,46.70
2023-11-30T03:08:09.949Z,58.40
2023-11-30T03:10:38.365Z,54.03
2023-11-30T03:13:06.715Z,45.43
2023-11-30T03:15:45.651Z,53.50
2023-11-30T03:18:14.247Z,44.67
2023-11-30T03:20:43.770Z,48.93
2023-11-30T03:23:12.150Z,52.80
2023-11-30T03:25:42.212Z,46.53
2023-11-30T03:28:10.727Z,50.20
2023-11-30T03:30:40.602Z,48.03
2023-11-30T03:33:09.101Z,49.93
2023-11-30T03:35:37.573Z,50.40
2023-11-30T03:38:07.352Z,51.37
2023-11-30T03:40:35.702Z,54.43
2023-11-30T03:43:04.116Z,49.37
2023-11-30T03:45:36.100Z,46.93
2023-11-30T03:48:06.406Z,49.33
2023-11-30T03:50:34.735Z,53.07
2023-11-30T03:53:03.147Z,45.40
2023-11-30T03:55:31.792Z,49.73
2023-11-30T03:58:00.075Z,47.03
2023-11-30T04:00:28.564Z,52.97
2023-11-30T04:02:56.921Z,57.33
2023-11-30T04:05:28.090Z,48.73
2023-11-30T04:07:56.791Z,51.10
2023-11-30T04:10:25.167Z,46.73
2023-11-30T04:12:53.508Z,52.77
2023-11-30T04:15:21.959Z,55.77
2023-11-30T04:17:50.517Z,60.47
2023-11-30T04:20:18.952Z,49.57
2023-11-30T04:22:48.653Z,48.63
2023-11-30T04:25:18.301Z,59.00
2023-11-30T04:27:46.668Z,55.90
2023-11-30T04:30:15.504Z,53.10
2023-11-30T04:32:43.995Z,55.57
2023-11-30T04:35:12.482Z,56.03
2023-11-30T04:37:41.321Z,51.10
2023-11-30T04:40:13.559Z,53.50
2023-11-30T04:42:42.152Z,48.50
2023-11-30T04:45:10.944Z,45.60
2023-11-30T04:47:40.698Z,48.60
2023-11-30T04:50:10.337Z,52.83
2023-11-30T04:52:40.205Z,45.33
2023-11-30T04:55:11.252Z,59.07
2023-11-30T04:57:38.699Z,54.13
2023-11-30T05:00:10.001Z,57.43
2023-11-30T05:02:39.568Z,51.83
2023-11-30T05:05:08.793Z,52.37
2023-11-30T05:07:37.242Z,48.30
2023-11-30T05:10:06.345Z,53.87
2023-11-30T05:12:36.153Z,45.10
2023-11-30T05:15:04.927Z,47.63
2023-11-30T05:17:33.328Z,51.30
2023-11-30T05:20:03.031Z,54.83
2023-11-30T05:22:31.541Z,51.40
2023-11-30T05:24:59.865Z,54.43
2023-11-30T05:27:28.372Z,54.47
2023-11-30T05:29:58.136Z,55.23
2023-11-30T05:32:26.638Z,50.33
2023-11-30T05:34:55.178Z,48.57
2023-11-30T05:37:23.473Z,69.03
2023-11-30T05:39:51.793Z,97.03
2023-11-30T05:42:20.529Z,63.87
2023-11-30T05:44:49.364Z,66.70
2023-11-30T05:47:21.218Z,77.47
2023-11-30T05:49:49.886Z,81.47
2023-11-30T05:52:18.208Z,70.27
2023-11-30T05:54:46.637Z,71.60
2023-11-30T05:57:15.347Z,58.27
2023-11-30T05:59:43.784Z,52.57
2023-11-30T06:02:12.288Z,56.17
2023-11-30T06:04:51.415Z,53.50
2023-11-30T06:07:20.013Z,47.23
2023-11-30T06:09:48.569Z,54.13
2023-11-30T06:12:16.854Z,51.97
2023-11-30T06:14:47.727Z,49.83
2023-11-30T06:17:18.875Z,52.93
2023-11-30T06:19:48.565Z,54.97
2023-11-30T06:22:17.022Z,60.33
2023-11-30T06:24:45.320Z,53.57
2023-11-30T06:27:13.650Z,56.83
2023-11-30T06:29:41.995Z,64.00
2023-11-30T06:32:10.369Z,62.80
2023-11-30T06:34:39.802Z,51.97
2023-11-30T06:37:09.619Z,62.47
2023-11-30T06:39:37.887Z,49.73
2023-11-30T06:42:06.711Z,54.10
2023-11-30T06:44:35.147Z,50.13
2023-11-30T06:47:03.699Z,52.03
2023-11-30T06:49:32.106Z,53.33
2023-11-30T06:52:04.178Z,60.87
2023-11-30T06:54:35.478Z,54.20
2023-11-30T06:57:03.790Z,58.80
2023-11-30T06:59:33.780Z,59.57
2023-11-30T07:02:02.347Z,63.33
2023-11-30T07:04:30.836Z,56.67
2023-11-30T07:06:59.240Z,58.00
2023-11-30T07:09:28.225Z,53.87
2023-11-30T07:11:57.938Z,55.30
2023-11-30T07:14:26.240Z,55.37
2023-11-30T07:16:54.587Z,57.03
2023-11-30T07:19:23.135Z,49.63
2023-11-30T07:21:51.934Z,62.70
2023-11-30T07:24:20.409Z,53.63
2023-11-30T07:26:49.617Z,54.10
2023-11-30T07:29:19.648Z,45.40
2023-11-30T07:31:48.013Z,55.87
2023-11-30T07:34:16.403Z,55.27
2023-11-30T07:36:44.903Z,51.63
2023-11-30T07:39:13.365Z,49.83
2023-11-30T07:41:42.004Z,46.27
2023-11-30T07:44:10.315Z,50.23
2023-11-30T07:46:39.973Z,52.67
2023-11-30T07:49:08.404Z,50.70
2023-11-30T07:51:36.788Z,54.87
2023-11-30T07:54:05.254Z,56.07
2023-11-30T07:56:33.546Z,51.07
2023-11-30T07:59:02.320Z,53.77
2023-11-30T08:01:31.033Z,53.43
2023-11-30T08:04:01.298Z,48.93
2023-11-30T08:06:30.000Z,48.57
2023-11-30T08:08:58.294Z,51.93
2023-11-30T08:11:26.930Z,45.97
2023-11-30T08:13:55.317Z,46.33
2023-11-30T08:16:24.772Z,51.37
2023-11-30T08:18:53.622Z,45.70
2023-11-30T08:21:23.450Z,55.77
2023-11-30T08:23:51.962Z,48.93
2023-11-30T08:26:21.055Z,48.87
2023-11-30T08:28:50.608Z,44.57
2023-11-30T08:31:19.000Z,49.87
2023-11-30T08:33:48.483Z,55.13
2023-11-30T08:36:16.980Z,47.73
2023-11-30T08:38:47.151Z,44.20
2023-11-30T08:41:15.464Z,46.63
2023-11-30T08:43:43.887Z,53.80
2023-11-30T08:46:12.180Z,54.07
2023-11-30T08:48:40.606Z,50.23
2023-11-30T08:51:11.954Z,46.83
2023-11-30T08:53:39.259Z,48.70
2023-11-30T08:56:10.552Z,51.10
2023-11-30T08:58:38.868Z,48.63
2023-11-30T09:01:08.449Z,46.23
2023-11-30T09:03:37.126Z,55.50
2023-11-30T09:06:05.969Z,52.63
2023-11-30T09:08:34.826Z,48.37
2023-11-30T09:11:03.256Z,59.17
2023-11-30T09:13:33.170Z,48.03
2023-11-30T09:16:01.405Z,43.30
2023-11-30T09:18:29.837Z,40.43
2023-11-30T09:20:58.181Z,47.93
2023-11-30T09:23:27.541Z,47.37
2023-11-30T09:25:55.790Z,46.40
2023-11-30T09:28:24.172Z,47.47
2023-11-30T09:30:53.953Z,46.40
2023-11-30T09:33:22.354Z,45.27
2023-11-30T09:35:50.746Z,43.60
2023-11-30T09:38:19.194Z,44.50
2023-11-30T09:40:47.780Z,48.23
2023-11-30T09:43:18.241Z,41.87
2023-11-30T09:45:48.706Z,35.90
2023-11-30T09:48:19.007Z,37.53
2023-11-30T09:50:49.252Z,38.40
2023-11-30T09:53:18.913Z,35.23
2023-11-30T09:55:47.235Z,39.67
2023-11-30T09:58:16.437Z,30.87
2023-11-30T10:00:44.976Z,33.53
2023-11-30T10:03:13.877Z,33.03
2023-11-30T10:05:45.042Z,36.37
2023-11-30T10:08:14.342Z,29.80
2023-11-30T10:10:42.720Z,35.50
2023-11-30T10:13:11.592Z,28.50
2023-11-30T10:15:40.022Z,34.47
2023-11-30T10:18:09.236Z,36.30
2023-11-30T10:20:38.661Z,31.57
2023-11-30T10:23:13.444Z,34.07
2023-11-30T10:25:43.415Z,32.70
2023-11-30T10:28:14.272Z,30.57
2023-11-30T10:30:44.049Z,32.00
2023-11-30T10:33:15.600Z,33.47
2023-11-30T10:35:46.245Z,34.80
2023-11-30T10:38:22.410Z,28.57
2023-11-30T10:40:53.825Z,30.27
2023-11-30T10:43:23.823Z,31.20
2023-11-30T10:45:55.910Z,23.10
2023-11-30T10:48:26.125Z,28.17
2023-11-30T10:50:56.573Z,26.83
2023-11-30T10:53:37.931Z,27.97
2023-11-30T10:56:07.920Z,27.20
2023-11-30T10:58:38.023Z,30.17
2023-11-30T11:01:07.204Z,26.53
2023-11-30T11:03:35.845Z,31.53
2023-11-30T11:06:06.887Z,33.43
2023-11-30T11:08:36.843Z,29.60
2023-11-30T11:11:10.129Z,28.67
2023-11-30T11:13:48.218Z,32.13
2023-11-30T11:16:16.748Z,29.23
2023-11-30T11:18:45.498Z,27.33
2023-11-30T11:21:28.890Z,29.23
2023-11-30T11:24:04.960Z,27.77
2023-11-30T11:26:45.745Z,29.07
2023-11-30T11:29:17.788Z,28.77
2023-11-30T11:31:49.831Z,29.70
2023-11-30T11:34:18.684Z,29.83
2023-11-30T11:36:47.188Z,28.23
2023-11-30T11:39:17.674Z,30.03
2023-11-30T11:41:48.642Z,23.90
2023-11-30T11:44:17.294Z,27.30
2023-11-30T11:46:46.905Z,25.70
2023-11-30T11:49:19.247Z,27.90
2023-11-30T11:51:48.530Z,27.33
2023-11-30T11:54:23.046Z,25.90
2023-11-30T11:56:52.659Z,32.70
2023-11-30T11:59:25.009Z,29.00
2023-11-30T12:01:54.460Z,28.20
2023-11-30T12:04:30.839Z,30.57
2023-11-30T12:06:59.957Z,29.47
2023-11-30T12:09:29.599Z,29.80
2023-11-30T12:11:58.560Z,28.43
2023-11-30T12:14:27.302Z,25.73
2023-11-30T12:16:55.756Z,30.30
2023-11-30T12:19:24.195Z,28.90
2023-11-30T12:21:52.802Z,29.97
2023-11-30T12:24:22.385Z,23.30
2023-11-30T12:26:52.240Z,29.40
2023-11-30T12:29:20.847Z,30.77
2023-11-30T12:31:49.278Z,29.50
2023-11-30T12:34:17.770Z,26.40
2023-11-30T12:36:46.288Z,28.93
2023-11-30T12:39:16.983Z,23.73
2023-11-30T12:41:45.502Z,26.33
2023-11-30T12:44:15.257Z,23.97
2023-11-30T12:46:44.651Z,25.20
2023-11-30T12:49:13.913Z,31.50
2023-11-30T12:51:42.516Z,28.17
2023-11-30T12:54:10.902Z,29.80
2023-11-30T12:56:39.270Z,23.10
2023-11-30T12:59:07.732Z,25.57
2023-11-30T13:01:38.486Z,25.13
2023-11-30T13:04:07.372Z,24.70
2023-11-30T13:06:36.387Z,29.60
2023-11-30T13:09:05.281Z,26.27
2023-11-30T13:11:33.549Z,30.93
2023-11-30T13:14:02.449Z,22.20
2023-11-30T13:16:30.832Z,27.57
2023-11-30T13:19:01.093Z,29.30
2023-11-30T13:21:30.442Z,28.23
2023-11-30T13:23:59.002Z,29.40
2023-11-30T13:26:27.224Z,23.97
2023-11-30T13:28:55.537Z,28.90
2023-11-30T13:31:23.918Z,23.67
2023-11-30T13:33:52.306Z,28.10
2023-11-30T13:36:22.497Z,34.93
2023-11-30T13:38:50.941Z,33.97
2023-11-30T13:41:20.900Z,37.73
2023-11-30T13:43:49.291Z,41.07
2023-11-30T13:46:17.880Z,41.07
2023-11-30T13:48:46.404Z,38.33
2023-11-30T13:51:15.116Z,45.83
2023-11-30T13:53:44.772Z,51.60
2023-11-30T13:56:13.408Z,50.93
2023-11-30T13:58:41.765Z,60.67
2023-11-30T14:01:10.749Z,54.03
2023-11-30T14:03:39.710Z,42.33
2023-11-30T14:06:09.069Z,42.50
2023-11-30T14:08:38.014Z,38.47
2023-11-30T14:11:13.213Z,43.57
2023-11-30T14:13:41.757Z,41.63
2023-11-30T14:16:11.080Z,42.27
2023-11-30T14:18:39.394Z,40.00
2023-11-30T14:21:08.546Z,37.93
2023-11-30T14:23:37.900Z,39.90
2023-11-30T14:26:06.929Z,41.73
2023-11-30T14:28:36.657Z,37.77
2023-11-30T14:31:05.348Z,43.70
2023-11-30T14:33:33.793Z,39.03
2023-11-30T14:36:02.162Z,41.37
2023-11-30T14:38:30.677Z,44.23
2023-11-30T14:41:00.331Z,40.00
2023-11-30T14:43:28.581Z,42.53
2023-11-30T14:45:58.271Z,48.80
2023-11-30T14:48:26.627Z,56.97
2023-11-30T14:50:55.743Z,54.27
2023-11-30T14:53:24.362Z,53.50
2023-11-30T14:55:52.629Z,53.83
2023-11-30T14:58:21.631Z,57.93
2023-11-30T15:00:50.512Z,56.03
2023-11-30T15:03:20.841Z,55.80
2023-11-30T15:05:49.550Z,73.30
2023-11-30T15:08:18.532Z,76.30
2023-11-30T15:10:49.806Z,78.60
2023-11-30T15:13:33.733Z,67.83
2023-11-30T15:16:02.443Z,82.47
2023-11-30T15:18:32.425Z,73.43
2023-11-30T15:21:00.773Z,56.87
2023-11-30T15:23:32.364Z,62.80
2023-11-30T15:26:00.793Z,57.33
2023-11-30T15:28:29.344Z,59.83
2023-11-30T15:30:57.770Z,60.70
2023-11-30T15:33:27.978Z,55.60
2023-11-30T15:35:58.379Z,54.30
2023-11-30T15:38:32.004Z,56.20
2023-11-30T15:41:00.353Z,61.10
2023-11-30T15:43:28.677Z,66.90
2023-11-30T15:45:57.071Z,56.70
2023-11-30T15:48:25.590Z,55.60
2023-11-30T15:50:54.049Z,58.57
2023-11-30T15:53:23.844Z,59.73
2023-11-30T15:55:53.644Z,58.77
2023-11-30T15:58:22.256Z,59.30
2023-11-30T16:00:51.305Z,62.43
2023-11-30T16:03:20.461Z,59.53
2023-11-30T16:05:49.193Z,64.97
2023-11-30T16:08:18.435Z,64.13
2023-11-30T16:10:48.385Z,59.60
2023-11-30T16:13:17.479Z,63.60
2023-11-30T16:15:46.024Z,58.43
2023-11-30T16:18:14.364Z,62.50
2023-11-30T16:20:42.651Z,73.13
2023-11-30T16:23:11.391Z,66.17
2023-11-30T16:25:39.935Z,62.13
2023-11-30T16:28:10.395Z,66.73
2023-11-30T16:30:38.844Z,71.03
2023-11-30T16:33:07.811Z,64.23
2023-11-30T16:35:36.290Z,59.70
2023-11-30T16:38:05.355Z,67.07
2023-11-30T16:40:34.092Z,65.90
2023-11-30T16:43:02.494Z,65.23
2023-11-30T16:45:32.685Z,67.03
2023-11-30T16:48:01.965Z,70.93
2023-11-30T16:50:30.526Z,64.47
2023-11-30T16:52:59.634Z,65.40
2023-11-30T16:55:28.163Z,71.10
2023-11-30T16:57:56.725Z,74.20
2023-11-30T17:00:25.745Z,87.77
2023-11-30T17:02:57.323Z,75.60
2023-11-30T17:05:25.991Z,85.17
2023-11-30T17:07:54.508Z,82.23
2023-11-30T17:10:23.881Z,77.27
2023-11-30T17:12:52.401Z,81.93
2023-11-30T17:15:20.815Z,64.60
2023-11-30T17:17:50.597Z,71.97
2023-11-30T17:20:20.590Z,60.03
2023-11-30T17:22:50.862Z,60.40
2023-11-30T17:25:19.368Z,60.67
2023-11-30T17:27:47.766Z,62.83
2023-11-30T17:30:17.626Z,58.67
2023-11-30T17:32:46.283Z,69.83
2023-11-30T17:35:15.155Z,78.03
2023-11-30T17:37:45.280Z,59.60
2023-11-30T17:40:14.776Z,74.77
2023-11-30T17:42:43.074Z,75.17
2023-11-30T17:45:12.073Z,67.83
2023-11-30T17:47:40.694Z,76.43
2023-11-30T17:50:10.020Z,102.43
2023-11-30T17:52:38.565Z,82.30
2023-11-30T17:55:08.873Z,78.67
2023-11-30T17:57:37.145Z,84.57
2023-11-30T18:00:07.069Z,93.80
2023-11-30T18:02:40.280Z,87.40
2023-11-30T18:05:10.601Z,77.57
2023-11-30T18:07:38.971Z,80.67
2023-11-30T18:10:09.906Z,80.13
2023-11-30T18:12:38.330Z,80.80
2023-11-30T18:15:07.782Z,84.70
2023-11-30T18:17:36.217Z,88.93
2023-11-30T18:20:05.154Z,79.80
2023-11-30T18:22:34.733Z,82.07
2023-11-30T18:25:03.413Z,95.87
2023-11-30T18:27:33.356Z,93.53
2023-11-30T18:30:01.823Z,109.70
2023-11-30T18:32:30.320Z,102.73
2023-11-30T18:34:59.129Z,132.43
2023-11-30T18:37:27.682Z,91.07
2023-11-30T18:39:56.084Z,99.17
2023-11-30T18:42:24.501Z,88.53
2023-11-30T18:44:54.386Z,89.13
2023-11-30T18:47:22.723Z,78.37
2023-11-30T18:49:51.236Z,80.30
2023-11-30T18:52:19.684Z,85.67
2023-11-30T18:54:52.097Z,82.07
2023-11-30T18:57:20.393Z,73.53
2023-11-30T18:59:49.106Z,79.23
2023-11-30T19:02:18.937Z,76.97
2023-11-30T19:04:47.280Z,77.73
2023-11-30T19:07:15.632Z,74.17
2023-11-30T19:09:43.945Z,79.10
2023-11-30T19:12:12.541Z,75.07
2023-11-30T19:14:40.999Z,77.57
2023-11-30T19:17:09.431Z,75.90
2023-11-30T19:19:39.630Z,89.53
2023-11-30T19:22:08.054Z,91.03
2023-11-30T19:24:37.712Z,85.93
2023-11-30T19:27:06.606Z,79.97
2023-11-30T19:29:36.465Z,89.83
2023-11-30T19:32:05.303Z,101.77
2023-11-30T19:34:33.982Z,97.00
2023-11-30T19:37:03.947Z,92.87
2023-11-30T19:39:32.258Z,80.70
2023-11-30T19:42:00.695Z,71.70
2023-11-30T19:44:29.136Z,78.37
2023-11-30T19:46:57.592Z,76.33
2023-11-30T19:49:26.126Z,81.37
2023-11-30T19:51:54.477Z,85.53
2023-11-30T19:54:24.498Z,91.57
2023-11-30T19:56:53.135Z,87.03
2023-11-30T19:59:21.728Z,84.60
2023-11-30T20:01:50.608Z,79.47
2023-11-30T20:04:19.094Z,65.70
2023-11-30T20:06:47.704Z,69.10
2023-11-30T20:09:16.342Z,73.73
2023-11-30T20:11:46.183Z,78.40
2023-11-30T20:14:14.652Z,80.33
2023-11-30T20:16:43.269Z,85.57
2023-11-30T20:19:12.214Z,90.20
2023-11-30T20:21:40.533Z,83.00
2023-11-30T20:24:10.299Z,77.20
2023-11-30T20:26:49.669Z,75.83
2023-11-30T20:29:20.024Z,87.00
2023-11-30T20:31:50.757Z,91.00
2023-11-30T20:34:19.488Z,84.97
2023-11-30T20:36:50.718Z,83.00
2023-11-30T20:39:20.063Z,73.60
2023-11-30T20:41:49.047Z,71.47
2023-11-30T20:44:17.662Z,72.53
2023-11-30T20:46:54.088Z,68.57
2023-11-30T20:49:22.359Z,73.83
2023-11-30T20:51:50.783Z,77.83
2023-11-30T20:54:19.259Z,66.40
2023-11-30T20:56:48.770Z,79.00
2023-11-30T20:59:17.234Z,69.53
2023-11-30T21:01:45.699Z,67.20
2023-11-30T21:04:15.606Z,69.57
2023-11-30T21:06:44.173Z,69.30
2023-11-30T21:09:12.633Z,81.70
2023-11-30T21:11:41.115Z,73.10
2023-11-30T21:14:11.452Z,80.37
2023-11-30T21:16:39.827Z,77.63
2023-11-30T21:19:08.244Z,80.37
2023-11-30T21:21:38.161Z,70.07
2023-11-30T21:24:07.284Z,76.43
2023-11-30T21:26:35.700Z,75.80
2023-11-30T21:29:04.036Z,73.47
2023-11-30T21:31:32.646Z,75.40
2023-11-30T21:34:01.360Z,88.80
2023-11-30T21:36:29.824Z,83.80
2023-11-30T21:38:59.602Z,77.53
2023-11-30T21:41:28.187Z,70.07
2023-11-30T21:43:56.698Z,73.07
2023-11-30T21:46:25.208Z,80.37
2023-11-30T21:48:54.132Z,71.90
2023-11-30T21:51:22.616Z,78.60
2023-11-30T21:53:51.009Z,78.30
2023-11-30T21:56:20.789Z,76.70
2023-11-30T21:58:49.825Z,84.17
2023-11-30T22:01:18.970Z,103.97
2023-11-30T22:03:47.564Z,102.60
2023-11-30T22:06:15.925Z,94.33
2023-11-30T22:08:44.721Z,91.17
2023-11-30T22:11:14.165Z,86.57
2023-11-30T22:13:43.964Z,91.37
2023-11-30T22:16:15.072Z,101.77
2023-11-30T22:18:45.090Z,101.67
2023-11-30T22:21:13.498Z,107.60
2023-11-30T22:23:42.324Z,107.33
2023-11-30T22:26:10.792Z,111.20
2023-11-30T22:28:39.686Z,117.70
2023-11-30T22:31:09.698Z,118.90
2023-11-30T22:33:38.241Z,128.77
2023-11-30T22:36:07.686Z,113.57
2023-11-30T22:38:41.304Z,108.40
2023-11-30T22:41:14.261Z,119.50
2023-11-30T22:43:42.724Z,121.93
2023-11-30T22:46:19.136Z,123.53
2023-11-30T22:48:49.955Z,137.13
2023-11-30T22:51:19.073Z,131.43
2023-11-30T22:53:47.726Z,127.37
2023-11-30T22:56:19.690Z,125.47
2023-11-30T22:58:48.614Z,118.10
2023-11-30T23:01:19.069Z,107.37
2023-11-30T23:03:48.021Z,99.73
2023-11-30T23:06:16.617Z,89.97
2023-11-30T23:08:45.222Z,105.20
2023-11-30T23:11:13.818Z,103.70
2023-11-30T23:13:42.411Z,100.60
2023-11-30T23:16:13.091Z,86.27
2023-11-30T23:18:43.132Z,92.63
2023-11-30T23:21:11.684Z,87.20
2023-11-30T23:23:40.045Z,86.93
2023-11-30T23:26:08.671Z,87.67
2023-11-30T23:28:37.153Z,86.03
2023-11-30T23:31:05.822Z,85.27
2023-11-30T23:33:34.299Z,89.17
2023-11-30T23:36:04.107Z,78.97
2023-11-30T23:38:32.430Z,80.10
2023-11-30T23:41:00.720Z,76.07
2023-11-30T23:43:29.521Z,70.63
2023-11-30T23:45:57.895Z,74.83
2023-11-30T23:48:26.304Z,90.00
2023-11-30T23:50:56.837Z,86.87
2023-11-30T23:53:26.564Z,85.87
2023-11-30T23:55:54.835Z,87.70
2023-11-30T23:58:23.235Z,84.47
